Go Pro

BRT Apartments (BRT) Institutional Ownership

BRT Apartments logo
$14.47 -0.20 (-1.36%)
As of 01:09 PM Eastern
This is a fair market value price provided by Massive. Learn more.

Institutional Ownership Changes (13F Filings) for BRT Apartments (NYSE:BRT)

Current
Institutional Ownership
Percentage
29.07%
Number of
Institutional Buyers
(last 12 months)
31
Total
Institutional Inflows
(last 12 months)
$25.56M
Number of
Institutional Sellers
(last 12 months)
14
Total
Institutional Outflows
(last 12 months)
$2.40M
Get BRT Insider Trade Alerts

Want to know when executives and insiders are buying or selling BRT Apartments stock? Sign up for InsiderTrades.com's daily newsletter to get the latest insider transactions delivered to your inbox daily.

SMS is currently available in Australia, Belgium, Canada, France, Germany, Ireland, Italy, New Zealand, the Netherlands, Singapore, South Africa, Spain, Switzerland, the United Kingdom, and the United States. By entering your phone number and clicking the sign-up button, you agree to receive periodic text messages from MarketBeat at the phone number you submitted, including texts that may be sent using an automatic telephone dialing system. Message and data rates may apply. Message frequency will vary. Messages will consist of stock alerts, news stories, and partner advertisements/offers. Consent is not a condition of the purchase of any goods or services. Text HELP for help/customer support. Unsubscribe at any time by replying "STOP" to any text message that you receive from MarketBeat or by visiting our mailing preferences page. Read our full terms of service and privacy policy.
Skip Chart & View Institutional Buying and Selling Data

BRT Institutional Buying and Selling by Quarter

BRT Apartments Major Shareholders & Ownership History

Reporting DateMajor Shareholder NameShares HeldMarket Value% of PortfolioQuarterly Change in SharesOwnership in CompanyDetails
8/24/2026 California State Teachers Retirement System2,121$33K0.0%+261.9%0.011%
8/22/2026 Odyssean LLC13,500$207K0.0%N/A0.072%
8/20/2026 Wedbush Securities Inc.20,861$321K0.0%-6.9%0.111%
8/18/2026 Public Employees Retirement System of Ohio11,198$172K0.0%N/A0.060%
8/17/2026 Bank of America Corp DE11,828$182K0.0%N/A0.063%
8/15/2026 Odyssean LLC13,500$207K0.0%N/A0.072%
8/13/2026 Capital Square LLC20,826$309K0.1%N/A0.111%
8/7/2026 BlackRock Inc.1,061,220$16.31M0.0%N/A5.639%
8/7/2026 Deutsche Bank AG9,781$150K0.0%N/A0.052%
8/7/2026 Mitsubishi UFJ Asset Management Co. Ltd.8,450$130K0.0%N/A0.045%
8/6/2026 Bank of New York Mellon Corp86,900$1.34M0.0%N/A0.462%
8/6/2026 GSA Capital Partners LLP10,926$168K0.0%N/A0.058%
5/15/2026 Wealth Alliance LLC45,350$605K0.1%-4.5%0.241%
5/14/2026 Renaissance Technologies LLC320,291$4.27M0.0%-4.1%1.702%
5/14/2026 Public Employees Retirement System of Ohio12,362$165K0.0%+227.8%0.066%
5/7/2026 Dimensional Fund Advisors LP151,640$2.02M0.0%-2.3%0.806%
5/5/2026 Bank of New York Mellon Corp79,851$1.07M0.0%-5.9%0.421%
4/27/2026 Lesa Sroufe & Co13,479$180K0.1%-23.0%0.071%
4/16/2026 Silverberg Bernstein Capital Management LLC155,725$2.08M1.1%+14.9%0.820%
2/18/2026 Millennium Management LLC22,456$330K0.0%N/A0.118%
2/17/2026 Public Employees Retirement System of Ohio3,771$55K0.0%N/A0.020%
2/17/2026 Russell Investments Group Ltd.3,626$53K0.0%+107.1%0.019%
2/13/2026 Marshall Wace LLP20,648$304K0.0%N/A0.109%
2/13/2026 CANADA LIFE ASSURANCE Co2,073$30K0.0%+1,171.8%0.011%
2/13/2026 Stifel Financial Corp169,390$2.49M0.0%+26.4%0.891%
2/13/2026 Police & Firemen s Retirement System of New Jersey1,690$25K0.0%-58.9%0.009%
2/13/2026 State Street Corp256,769$3.84M0.0%+3.3%1.350%
2/13/2026 Boston Partners124,434$1.83M0.0%+12.5%0.654%
2/13/2026 Wells Fargo & Company MN13,050$192K0.0%+40.9%0.069%
2/12/2026 Jane Street Group LLC60,882$895K0.0%N/A0.320%
2/12/2026 Renaissance Technologies LLC334,091$4.91M0.0%-5.5%1.757%
2/12/2026 Dimensional Fund Advisors LP155,264$2.28M0.0%-1.5%0.816%
2/12/2026 Wedbush Securities Inc.19,662$289K0.0%N/A0.103%
2/12/2026 Alps Advisors Inc.14,548$214K0.0%-24.6%0.076%
2/10/2026 Goldman Sachs Group Inc.35,615$524K0.0%+32.8%0.187%
2/10/2026 Root Financial Partners LLC51,890$763K0.0%N/A0.273%
2/10/2026 Eurizon Capital SGR S.p.A.7,685$113K0.0%N/A0.040%
2/10/2026 Oppenheimer & Close LLC377,672$5.55M3.8%+9.9%1.986%
2/9/2026 Geode Capital Management LLC273,455$4.02M0.0%-5.7%1.438%
1/22/2026 Brookwood Investment Group LLC19,220$283K0.0%+13.1%0.101%
Three companies about to leapfrog Nvidia [And transform the entire industry] (Ad)

AI data centers have a power problem nobody likes to talk about. A single rack of computers can now use more electricity than an entire office building. One new chip, which looks more like a piece of plywood than a processor, delivers similar performance on a fraction of the power. Tech investing veteran George Gilder says that efficiency gap could decide who wins the next stage of AI. Gilder has identified three companies positioned around this power breakthrough, calling them the Trillion Dollar Triangle.tc pixel

See the three companies behind this AI power breakthrough now
1/15/2026 Nisa Investment Advisors LLC2,390$37K0.0%-34.5%0.013%
1/12/2026 Silverberg Bernstein Capital Management LLC135,555$1.99M1.2%+13.0%0.713%
1/1/2026 JPMorgan Chase & Co.18,826$295K0.0%+31.8%0.099%
11/17/2025 Permanens Capital L.P.201,263$3.19M0.5%+21.4%1.058%
11/17/2025 MIRAE ASSET GLOBAL ETFS HOLDINGS Ltd.5,060$79K0.0%-14.6%0.027%
11/17/2025 Bard Associates Inc.62,770$998K0.3%-46.9%0.330%
11/13/2025 Boston Partners110,640$1.73M0.0%+5.8%0.584%
11/13/2025 BNP Paribas Financial Markets10,685$167K0.0%+240.4%0.056%
11/13/2025 Russell Investments Group Ltd.1,751$27K0.0%+725.9%0.009%
11/12/2025 Dimensional Fund Advisors LP157,693$2.47M0.0%-1.1%0.833%
11/10/2025 Oppenheimer & Close LLC343,759$5.38M3.6%+1.1%1.816%
11/7/2025 Wealth Alliance LLC47,471$743K0.1%-2.1%0.251%
11/7/2025Vanguard Group Inc.1,101,685$17.25M0.0%-1.7%5.820%
11/7/2025 JPMorgan Chase & Co.18,826$295K0.0%+31.8%0.099%
11/7/2025 State of New Jersey Common Pension Fund D169,132$2.65M0.0%-2.9%0.893%
11/5/2025 Alps Advisors Inc.19,304$302K0.0%+18.5%0.102%
10/21/2025 Brookwood Investment Group LLC17,001$266K0.0%+15.9%0.090%
10/7/2025 Silverberg Bernstein Capital Management LLC119,927$1.88M1.1%+21.4%0.634%
9/4/2025 Osaic Holdings Inc.1,809$28K0.0%+111.8%0.010%
8/15/2025 Tower Research Capital LLC TRC 3,236$51K0.0%+328.0%0.017%
8/15/2025 Tidal Investments LLC23,454$367K0.0%+22.4%0.124%
8/15/2025 Man Group plc11,402$178K0.0%-31.1%0.060%
8/15/2025 BNP Paribas Financial Markets3,139$49K0.0%+388.9%0.017%
8/15/2025 Bank of America Corp DE6,751$106K0.0%-56.2%0.036%
8/14/2025 MIRAE ASSET GLOBAL ETFS HOLDINGS Ltd.5,927$93K0.0%-12.5%0.031%
8/13/2025 Invesco Ltd.14,919$233K0.0%-18.1%0.079%
8/12/2025 Boston Partners104,554$1.64M0.0%-1.2%0.552%
8/12/2025 Prudential Financial Inc.77,205$1.21M0.0%+1.0%0.408%
8/12/2025 JPMorgan Chase & Co.14,289$223K0.0%-27.5%0.075%
8/8/2025 Geode Capital Management LLC289,073$4.52M0.0%+0.6%1.527%
8/7/2025 Boston Partners104,554$1.64M0.0%-1.2%0.552%
8/1/2025 Brookwood Investment Group LLC14,671$229K0.0%+34.7%0.078%
7/31/2025 Nisa Investment Advisors LLC3,015$48K0.0%-26.8%0.016%
7/9/2025 Silverberg Bernstein Capital Management LLC98,813$1.55M1.1%+25.1%0.522%
6/27/2025 Goldman Sachs Group Inc.37,266$634K0.0%+15.6%0.197%
5/28/2025Strs Ohio2,300$39K0.0%N/A0.012%
5/16/2025Goldman Sachs Group Inc.37,266$634K0.0%+15.6%0.197%
5/16/2025Permanens Capital L.P.23,308$402K0.1%N/A0.123%
5/13/2025Boston Partners105,801$1.80M0.0%-3.4%0.559%
5/12/2025Nuveen LLC39,580$673K0.0%N/A0.209%
5/12/2025Invesco Ltd.18,227$310K0.0%-22.8%0.096%
5/9/2025Vanguard Group Inc.1,130,907$19.23M0.0%+1.6%5.974%
5/6/2025Brookwood Investment Group LLC10,893$185K0.0%N/A0.058%
5/5/2025Wealth Alliance LLC48,471$824K0.1%-26.1%0.256%
4/30/2025Alps Advisors Inc.15,211$259K0.0%-7.6%0.080%
4/30/2025Nisa Investment Advisors LLC4,120$72K0.0%-18.1%0.022%
4/29/2025Oppenheimer & Close LLC340,379$5.79M4.8%-2.0%1.798%
4/29/2025Bank of New York Mellon Corp78,559$1.34M0.0%-1.7%0.415%
4/22/2025Advisor Resource Council61,173$994K0.1%N/A0.323%
4/18/2025Lesa Sroufe & Co17,500$297K0.3%N/A0.092%
Bank of America grew this stake 139% (Ad)

Bank of America raised its stake in a small gold company by 139%. Jane Street increased its position by 159%, and Millennium by 122%. Kopernik Global made it their largest holding, owning roughly 8% of the company. It holds rights to an 88 million ounce deposit with existing roads, power, and permits that never expire. Market cap sits near $4 billion against a deposit worth hundreds of billions at current gold prices.tc pixel

See the name, ticker, and full file now
4/16/2025Albert D Mason Inc.70,397$1.20M0.8%+1.8%0.372%
4/10/2025Silverberg Bernstein Capital Management LLC78,985$1.34M1.2%+19.5%0.417%
4/7/2025GAMMA Investing LLC1,479$25K0.0%+10,464.3%0.008%
2/17/2025Tidal Investments LLC19,168$346K0.0%+5.2%0.102%
2/17/2025Bank of America Corp DE17,557$317K0.0%+26.1%0.093%
2/17/2025BNP Paribas Financial Markets1,461$26K0.0%-40.6%0.008%
2/14/2025Northern Trust Corp103,547$1.87M0.0%-20.9%0.550%
2/14/2025Kovitz Investment Group Partners LLC89,022$1.61M0.0%-1.8%0.473%
2/14/2025Stifel Financial Corp125,725$2.27M0.0%-2.0%0.668%
2/14/2025Tower Research Capital LLC TRC1,745$31K0.0%+131.4%0.009%


BRT Institutional Ownership - Frequently Asked Questions

During the previous two years, 61 institutional investors and hedge funds held shares of BRT Apartments. The most heavily invested institutionals were Vanguard Group Inc. ($17.25M), BlackRock Inc. ($16.31M), Oppenheimer & Close LLC ($5.55M), Renaissance Technologies LLC ($4.27M), Geode Capital Management LLC ($4.02M), State Street Corp ($3.84M), and Permanens Capital L.P. ($3.19M).Learn more on BRT Apartments' institutional investors.

29.07% of BRT Apartments' stock is owned by institutional investors. Learn more on BRT's institutional investor holdings.

Of the 48 institutional investors that purchased BRT Apartments' stock in the last 24 months, the following investors and hedge funds have bought the highest volume of shares: BlackRock Inc. ($1.06M), Vanguard Group Inc. ($446.90K), Kovitz Investment Group Partners LLC ($90.68K), Silverberg Bernstein Capital Management LLC ($89.64K), Raymond James Financial Inc. ($88.17K), Bank of New York Mellon Corp ($86.90K), and Advisor Resource Council ($61.17K).

Institutional investors have bought a total of 1,680,863 shares in the last 24 months. This purchase volume represents approximately $25.56M in transactions.

Of the 14 institutional investors that sold BRT Apartments' stock in the last 24 months, the following investors and hedge funds have sold the highest volume of shares: Bard Associates Inc. ($55.47K), Renaissance Technologies LLC ($33.30K), Vanguard Group Inc. ($19.00K), Geode Capital Management LLC ($16.41K), Dimensional Fund Advisors LP ($7.82K), State of New Jersey Common Pension Fund D ($5K), and Bank of New York Mellon Corp ($4.96K).

Institutional investors have sold a total of 159,958 shares in the last 24 months. This volume of shares sold represents approximately $2.40M in transactions.



Institutional ownership data for NYSE:BRT is compiled from quarterly 13F filings submitted to the U.S. Securities and Exchange Commission (SEC), with the most recent received on 8/24/2026. New 13F filings are added each quarter as they're published.
From Our Partners